createdAt,value
2019-01-14T00:00:38.500Z,45.64
2019-01-14T00:01:38.129Z,45.63
2019-01-14T00:02:38.296Z,45.68
2019-01-14T00:03:39.208Z,45.68
2019-01-14T00:04:38.130Z,45.73
2019-01-14T00:05:38.301Z,45.7
2019-01-14T00:06:38.446Z,45.73
2019-01-14T00:07:38.770Z,45.7
2019-01-14T00:08:38.261Z,45.71
2019-01-14T00:09:38.701Z,45.75
2019-01-14T00:10:39.974Z,45.73
2019-01-14T00:11:38.146Z,45.7
2019-01-14T00:12:38.808Z,45.73
2019-01-14T00:13:38.129Z,45.72
2019-01-14T00:14:38.352Z,45.75
2019-01-14T00:15:38.529Z,45.76
2019-01-14T00:16:38.418Z,45.76
2019-01-14T00:17:38.196Z,45.78
2019-01-14T00:18:38.364Z,45.77
2019-01-14T00:19:38.446Z,45.74
2019-01-14T00:20:38.163Z,45.79
2019-01-14T00:21:38.297Z,45.76
2019-01-14T00:22:38.132Z,45.76
2019-01-14T00:23:38.233Z,45.79
2019-01-14T00:24:38.350Z,45.78
2019-01-14T00:25:38.140Z,45.79
2019-01-14T00:26:38.291Z,45.8
2019-01-14T00:27:38.293Z,45.8
2019-01-14T00:28:38.205Z,45.81
2019-01-14T00:29:38.302Z,45.77
2019-01-14T00:30:38.092Z,45.86
2019-01-14T00:31:38.445Z,45.84
2019-01-14T00:32:38.352Z,45.83
2019-01-14T00:33:38.292Z,45.84
2019-01-14T00:34:38.446Z,45.84
2019-01-14T00:35:38.367Z,45.83
2019-01-14T00:36:38.161Z,45.82
2019-01-14T00:37:38.286Z,45.85
2019-01-14T00:38:38.805Z,45.83
2019-01-14T00:39:38.165Z,45.83
2019-01-14T00:40:38.475Z,45.83
2019-01-14T00:41:38.095Z,45.86
2019-01-14T00:42:38.187Z,45.84
2019-01-14T00:43:38.194Z,45.84
2019-01-14T00:44:38.313Z,45.82
2019-01-14T00:45:38.154Z,45.83
2019-01-14T00:46:38.916Z,45.86
2019-01-14T00:47:38.018Z,45.85
2019-01-14T00:48:38.112Z,45.82
2019-01-14T00:49:38.292Z,45.86
2019-01-14T00:50:38.107Z,45.83
2019-01-14T00:51:38.204Z,45.84
2019-01-14T00:52:38.593Z,45.85
2019-01-14T00:53:38.166Z,45.86
2019-01-14T00:54:38.410Z,45.87
2019-01-14T00:55:38.112Z,45.88
2019-01-14T00:56:38.271Z,45.81
2019-01-14T00:57:38.255Z,45.84
2019-01-14T00:58:38.382Z,45.82
2019-01-14T00:59:38.472Z,45.88
2019-01-14T01:00:38.811Z,45.88
2019-01-14T01:01:38.375Z,45.88
2019-01-14T01:02:38.039Z,45.84
2019-01-14T01:03:38.164Z,45.84
2019-01-14T01:04:38.218Z,45.87
2019-01-14T01:05:39.807Z,45.84
2019-01-14T01:06:38.563Z,45.86
2019-01-14T01:07:38.115Z,45.83
2019-01-14T01:08:39.528Z,45.84
2019-01-14T01:09:38.198Z,45.8
2019-01-14T01:10:38.265Z,45.85
2019-01-14T01:11:38.070Z,45.88
2019-01-14T01:12:38.290Z,45.85
2019-01-14T01:13:38.832Z,45.84
2019-01-14T01:14:38.073Z,45.83
2019-01-14T01:15:38.188Z,45.85
2019-01-14T01:16:38.338Z,45.82
2019-01-14T01:17:38.210Z,45.88
2019-01-14T01:18:38.312Z,45.88
2019-01-14T01:19:38.788Z,45.85
2019-01-14T01:20:38.154Z,45.85
2019-01-14T01:21:38.510Z,45.82
2019-01-14T01:22:38.128Z,45.87
2019-01-14T01:23:38.398Z,45.83
2019-01-14T01:24:38.358Z,45.82
2019-01-14T01:25:38.118Z,45.82
2019-01-14T01:26:38.370Z,45.83
2019-01-14T01:27:39.010Z,45.87
2019-01-14T01:28:39.012Z,45.87
2019-01-14T01:29:38.769Z,45.85
2019-01-14T01:30:38.637Z,45.89
2019-01-14T01:31:38.169Z,45.87
2019-01-14T01:32:38.920Z,45.87
2019-01-14T01:33:38.430Z,45.85
2019-01-14T01:34:38.448Z,45.82
2019-01-14T01:35:38.254Z,45.85
2019-01-14T01:36:37.962Z,45.88
2019-01-14T01:37:38.283Z,45.82
2019-01-14T01:38:41.823Z,45.83
2019-01-14T01:39:38.078Z,45.83
2019-01-14T01:40:38.298Z,45.81
2019-01-14T01:41:38.252Z,45.83
2019-01-14T01:42:38.173Z,45.83
2019-01-14T01:43:38.586Z,45.83
2019-01-14T01:44:38.487Z,45.86
2019-01-14T01:45:38.277Z,45.82
2019-01-14T01:46:38.254Z,45.83
2019-01-14T01:47:38.347Z,45.83
2019-01-14T01:48:38.248Z,45.84
2019-01-14T01:49:38.273Z,45.81
2019-01-14T01:50:38.183Z,45.82
2019-01-14T01:51:38.237Z,45.81
2019-01-14T01:52:38.208Z,45.81
2019-01-14T01:53:38.314Z,45.78
2019-01-14T01:54:38.285Z,45.82
2019-01-14T01:55:38.503Z,45.78
2019-01-14T01:56:38.171Z,45.81
2019-01-14T01:57:38.036Z,45.82
2019-01-14T01:58:38.150Z,45.84
2019-01-14T01:59:38.191Z,45.86
2019-01-14T02:00:38.059Z,45.84
2019-01-14T02:01:38.152Z,45.83
2019-01-14T02:02:38.364Z,45.76
2019-01-14T02:03:38.377Z,45.81
2019-01-14T02:04:39.112Z,45.83
2019-01-14T02:05:38.088Z,45.77
2019-01-14T02:06:39.654Z,45.84
2019-01-14T02:07:38.265Z,45.78
2019-01-14T02:08:38.255Z,45.84
2019-01-14T02:09:38.118Z,45.79
2019-01-14T02:10:38.226Z,45.8
2019-01-14T02:11:38.072Z,45.81
2019-01-14T02:12:38.129Z,45.8
2019-01-14T02:13:38.246Z,45.83
2019-01-14T02:14:38.654Z,45.82
2019-01-14T02:15:38.206Z,45.84
2019-01-14T02:16:38.428Z,45.83
2019-01-14T02:17:38.571Z,45.85
2019-01-14T02:18:38.241Z,45.79
2019-01-14T02:19:38.459Z,45.81
2019-01-14T02:20:38.107Z,45.78
2019-01-14T02:21:38.122Z,45.78
2019-01-14T02:22:37.940Z,45.82
2019-01-14T02:23:38.012Z,45.81
2019-01-14T02:24:38.258Z,45.81
2019-01-14T02:25:37.944Z,45.81
2019-01-14T02:26:38.330Z,45.81
2019-01-14T02:27:38.344Z,45.82
2019-01-14T02:28:38.128Z,45.83
2019-01-14T02:29:38.105Z,45.78
2019-01-14T02:30:38.454Z,45.83
2019-01-14T02:31:37.950Z,45.78
2019-01-14T02:32:38.204Z,45.77
2019-01-14T02:33:38.177Z,45.78
2019-01-14T02:34:38.152Z,45.77
2019-01-14T02:35:38.130Z,45.78
2019-01-14T02:36:38.393Z,45.77
2019-01-14T02:37:38.343Z,45.81
2019-01-14T02:38:38.490Z,45.82
2019-01-14T02:39:38.436Z,45.76
2019-01-14T02:40:38.183Z,45.77
2019-01-14T02:41:38.415Z,45.81
2019-01-14T02:42:38.278Z,45.75
2019-01-14T02:43:38.361Z,45.77
2019-01-14T02:44:38.376Z,45.77
2019-01-14T02:45:38.337Z,45.79
2019-01-14T02:46:38.224Z,45.78
2019-01-14T02:47:40.029Z,45.78
2019-01-14T02:48:38.886Z,45.83
2019-01-14T02:49:38.314Z,45.76
2019-01-14T02:50:38.749Z,45.78
2019-01-14T02:51:38.153Z,45.8
2019-01-14T02:52:40.294Z,45.78
2019-01-14T02:53:38.461Z,45.75
2019-01-14T02:54:38.105Z,45.75
2019-01-14T02:55:38.235Z,45.75
2019-01-14T02:56:38.226Z,45.78
2019-01-14T02:57:38.146Z,45.79
2019-01-14T02:58:38.237Z,45.73
2019-01-14T02:59:38.359Z,45.76
2019-01-14T03:00:38.121Z,45.79
2019-01-14T03:01:38.476Z,45.75
2019-01-14T03:02:38.988Z,45.73
2019-01-14T03:03:38.379Z,45.79
2019-01-14T03:04:38.095Z,45.78
2019-01-14T03:05:37.980Z,45.81
2019-01-14T03:06:38.385Z,45.77
2019-01-14T03:07:38.233Z,45.78
2019-01-14T03:08:37.998Z,45.77
2019-01-14T03:09:38.627Z,45.78
2019-01-14T03:10:38.251Z,45.82
2019-01-14T03:11:38.076Z,45.8
2019-01-14T03:12:38.094Z,45.79
2019-01-14T03:13:37.938Z,45.75
2019-01-14T03:14:38.141Z,45.75
2019-01-14T03:15:38.228Z,45.75
2019-01-14T03:16:38.011Z,45.83
2019-01-14T03:17:38.237Z,45.77
2019-01-14T03:18:39.198Z,45.73
2019-01-14T03:19:38.035Z,45.77
2019-01-14T03:20:38.194Z,45.77
2019-01-14T03:21:38.490Z,45.77
2019-01-14T03:22:38.106Z,45.79
2019-01-14T03:23:38.095Z,45.81
2019-01-14T03:24:38.136Z,45.8
2019-01-14T03:25:38.037Z,45.76
2019-01-14T03:26:38.154Z,45.78
2019-01-14T03:27:38.186Z,45.82
2019-01-14T03:28:38.191Z,45.77
2019-01-14T03:29:38.255Z,45.79
2019-01-14T03:30:38.458Z,45.81
2019-01-14T03:31:38.418Z,45.81
2019-01-14T03:32:38.322Z,45.77
2019-01-14T03:33:37.949Z,45.77
2019-01-14T03:34:38.392Z,45.77
2019-01-14T03:35:38.426Z,45.79
2019-01-14T03:36:37.959Z,45.78
2019-01-14T03:37:38.436Z,45.78
2019-01-14T03:38:38.240Z,45.78
2019-01-14T03:39:38.351Z,45.73
2019-01-14T03:40:38.196Z,45.75
2019-01-14T03:41:40.045Z,45.78
2019-01-14T03:42:38.553Z,45.78
2019-01-14T03:43:38.591Z,45.76
2019-01-14T03:44:38.196Z,45.77
2019-01-14T03:45:38.574Z,45.79
2019-01-14T03:46:38.468Z,45.75
2019-01-14T03:47:38.233Z,45.76
2019-01-14T03:48:38.191Z,45.81
2019-01-14T03:49:38.270Z,45.76
2019-01-14T03:50:38.318Z,45.74
2019-01-14T03:51:38.516Z,45.75
2019-01-14T03:52:38.197Z,45.73
2019-01-14T03:53:38.255Z,45.75
2019-01-14T03:54:38.146Z,45.76
2019-01-14T03:55:38.411Z,45.74
2019-01-14T03:56:38.163Z,45.74
2019-01-14T03:57:38.035Z,45.74
2019-01-14T03:58:38.188Z,45.77
2019-01-14T03:59:38.138Z,45.75
2019-01-14T04:00:38.119Z,45.73
2019-01-14T04:01:38.423Z,45.73
2019-01-14T04:02:38.100Z,45.75
2019-01-14T04:03:38.018Z,45.75
2019-01-14T04:04:38.249Z,45.76
2019-01-14T04:05:38.246Z,45.76
2019-01-14T04:06:38.094Z,45.78
2019-01-14T04:07:38.187Z,45.77
2019-01-14T04:08:38.215Z,45.75
2019-01-14T04:09:38.358Z,45.74
2019-01-14T04:10:39.151Z,45.73
2019-01-14T04:11:38.077Z,45.77
2019-01-14T04:12:38.507Z,45.77
2019-01-14T04:13:38.438Z,45.75
2019-01-14T04:14:38.251Z,45.75
2019-01-14T04:15:38.095Z,45.72
2019-01-14T04:16:38.596Z,45.78
2019-01-14T04:17:38.121Z,45.71
2019-01-14T04:18:38.254Z,45.76
2019-01-14T04:19:38.229Z,45.75
2019-01-14T04:20:39.114Z,45.76
2019-01-14T04:21:38.198Z,45.76
2019-01-14T04:22:38.645Z,45.74
2019-01-14T04:23:38.438Z,45.76
2019-01-14T04:24:39.037Z,45.74
2019-01-14T04:25:38.605Z,45.77
2019-01-14T04:26:38.690Z,45.79
2019-01-14T04:27:38.483Z,45.8
2019-01-14T04:28:38.295Z,45.78
2019-01-14T04:29:38.225Z,45.79
2019-01-14T04:30:38.081Z,45.78
2019-01-14T04:31:38.305Z,45.78
2019-01-14T04:32:38.396Z,45.73
2019-01-14T04:33:38.766Z,45.76
2019-01-14T04:34:37.987Z,45.73
2019-01-14T04:35:38.423Z,45.81
2019-01-14T04:36:38.439Z,45.74
2019-01-14T04:37:38.065Z,45.79
2019-01-14T04:38:38.367Z,45.78
2019-01-14T04:39:38.349Z,45.79
2019-01-14T04:40:38.320Z,45.76
2019-01-14T04:41:38.297Z,45.75
2019-01-14T04:42:38.245Z,45.8
2019-01-14T04:43:37.997Z,45.83
2019-01-14T04:44:38.183Z,45.81
2019-01-14T04:45:38.149Z,45.84
2019-01-14T04:46:38.191Z,45.84
2019-01-14T04:47:38.559Z,45.86
2019-01-14T04:48:38.057Z,45.85
2019-01-14T04:49:38.154Z,45.86
2019-01-14T04:50:38.230Z,45.82
2019-01-14T04:51:38.526Z,45.79
2019-01-14T04:52:38.320Z,45.78
2019-01-14T04:53:40.026Z,45.77
2019-01-14T04:54:38.283Z,45.72
2019-01-14T04:55:38.117Z,45.69
2019-01-14T04:56:38.473Z,45.64
2019-01-14T04:57:38.028Z,45.62
2019-01-14T04:58:38.555Z,45.57
2019-01-14T04:59:38.210Z,45.56
2019-01-14T05:00:39.224Z,45.55
2019-01-14T05:01:38.135Z,45.57
2019-01-14T05:02:39.838Z,45.57
2019-01-14T05:03:38.028Z,45.51
2019-01-14T05:04:39.231Z,45.5
2019-01-14T05:05:38.370Z,45.41
2019-01-14T05:06:38.558Z,45.45
2019-01-14T05:07:38.879Z,45.43
2019-01-14T05:08:38.607Z,45.4
2019-01-14T05:09:38.355Z,45.38
2019-01-14T05:10:38.423Z,45.36
2019-01-14T05:11:38.063Z,45.34
2019-01-14T05:12:38.425Z,45.33
2019-01-14T05:13:38.324Z,45.31
2019-01-14T05:14:38.289Z,45.29
2019-01-14T05:15:38.131Z,45.27
2019-01-14T05:16:40.061Z,45.27
2019-01-14T05:17:38.548Z,45.3
2019-01-14T05:18:39.161Z,45.3
2019-01-14T05:19:38.287Z,45.25
2019-01-14T05:20:38.027Z,45.27
2019-01-14T05:21:38.335Z,45.31
2019-01-14T05:22:38.096Z,45.24
2019-01-14T05:23:37.997Z,45.21
2019-01-14T05:24:38.384Z,45.18
2019-01-14T05:25:38.386Z,45.29
2019-01-14T05:26:38.020Z,45.29
2019-01-14T05:27:38.604Z,45.22
2019-01-14T05:28:38.114Z,45.3
2019-01-14T05:29:38.056Z,45.31
2019-01-14T05:30:38.086Z,45.28
2019-01-14T05:31:38.121Z,45.2
2019-01-14T05:32:38.435Z,45.26
2019-01-14T05:33:38.359Z,45.18
2019-01-14T05:34:38.016Z,45.23
2019-01-14T05:35:38.130Z,45.24
2019-01-14T05:36:38.182Z,45.17
2019-01-14T05:37:38.499Z,45.19
2019-01-14T05:38:37.995Z,45.3
2019-01-14T05:39:38.809Z,45.18
2019-01-14T05:40:38.505Z,45.26
2019-01-14T05:41:38.101Z,45.2
2019-01-14T05:42:38.393Z,45.29
2019-01-14T05:43:38.306Z,45.23
2019-01-14T05:44:38.128Z,45.26
2019-01-14T05:45:38.603Z,45.22
2019-01-14T05:46:38.159Z,45.23
2019-01-14T05:47:38.317Z,45.22
2019-01-14T05:48:38.510Z,45.26
2019-01-14T05:49:37.878Z,45.22
2019-01-14T05:50:38.345Z,45.26
2019-01-14T05:51:38.372Z,45.22
2019-01-14T05:52:38.229Z,45.22
2019-01-14T05:53:38.131Z,45.18
2019-01-14T05:54:38.069Z,45.19
2019-01-14T05:55:38.109Z,45.21
2019-01-14T05:56:38.159Z,45.26
2019-01-14T05:57:37.901Z,45.24
2019-01-14T05:58:38.068Z,45.19
2019-01-14T05:59:38.187Z,45.25
2019-01-14T06:00:38.040Z,45.24
2019-01-14T06:01:38.061Z,45.17
2019-01-14T06:02:38.556Z,45.28
2019-01-14T06:03:38.065Z,45.24
2019-01-14T06:04:38.218Z,45.21
2019-01-14T06:05:37.837Z,45.19
2019-01-14T06:06:38.320Z,45.25
2019-01-14T06:07:45.448Z,45.4
2019-01-14T06:08:38.233Z,45.65
2019-01-14T06:09:37.902Z,45.86
2019-01-14T06:10:38.151Z,45.92
2019-01-14T06:11:38.408Z,45.81
2019-01-14T06:12:39.287Z,45.76
2019-01-14T06:13:38.344Z,45.73
2019-01-14T06:14:38.391Z,45.82
2019-01-14T06:15:38.053Z,45.78
2019-01-14T06:16:38.224Z,45.74
2019-01-14T06:17:38.290Z,45.68
2019-01-14T06:18:38.112Z,45.7
2019-01-14T06:19:38.088Z,45.61
2019-01-14T06:20:38.409Z,45.6
2019-01-14T06:21:38.099Z,45.7
2019-01-14T06:22:38.708Z,45.48
2019-01-14T06:23:38.046Z,45.49
2019-01-14T06:24:38.289Z,45.47
2019-01-14T06:25:38.466Z,45.44
2019-01-14T06:26:38.549Z,45.39
2019-01-14T06:27:37.993Z,45.33
2019-01-14T06:28:38.495Z,45.43
2019-01-14T06:29:38.066Z,45.33
2019-01-14T06:30:38.951Z,45.28
2019-01-14T06:31:38.178Z,45.34
2019-01-14T06:32:38.056Z,45.26
2019-01-14T06:33:38.088Z,45.21
2019-01-14T06:34:39.126Z,45.2
2019-01-14T06:35:38.456Z,45.22
2019-01-14T06:36:38.256Z,45.73
2019-01-14T06:37:37.982Z,45.44
2019-01-14T06:38:37.963Z,45.22
2019-01-14T06:39:38.527Z,45.32
2019-01-14T06:40:38.044Z,45.36
2019-01-14T06:41:38.344Z,45.06
2019-01-14T06:42:38.654Z,45.08
2019-01-14T06:43:38.014Z,45.18
2019-01-14T06:44:38.446Z,45.25
2019-01-14T06:45:38.070Z,45.13
2019-01-14T06:46:38.114Z,45.19
2019-01-14T06:47:38.145Z,45.18
2019-01-14T06:48:40.089Z,45.18
2019-01-14T06:49:38.450Z,45.12
2019-01-14T06:50:38.440Z,45.22
2019-01-14T06:51:38.062Z,45.19
2019-01-14T06:52:37.979Z,45.1
2019-01-14T06:53:38.015Z,45.24
2019-01-14T06:54:37.929Z,45.12
2019-01-14T06:55:38.093Z,45.12
2019-01-14T06:56:38.174Z,45.19
2019-01-14T06:57:38.073Z,45.16
2019-01-14T06:58:38.963Z,45.12
2019-01-14T06:59:38.438Z,45.16
2019-01-14T07:00:38.472Z,45.11
2019-01-14T07:01:38.111Z,45.12
2019-01-14T07:02:38.421Z,45.1
2019-01-14T07:03:38.177Z,45.1
2019-01-14T07:04:38.160Z,45.07
2019-01-14T07:05:38.134Z,45.1
2019-01-14T07:06:38.493Z,45.03
2019-01-14T07:07:38.149Z,45.11
2019-01-14T07:08:38.463Z,45.11
2019-01-14T07:09:38.443Z,45.09
2019-01-14T07:10:38.189Z,45.09
2019-01-14T07:11:39.065Z,45.09
2019-01-14T07:12:37.944Z,45.07
2019-01-14T07:13:38.761Z,45.09
2019-01-14T07:14:37.904Z,45.06
2019-01-14T07:15:38.070Z,45.07
2019-01-14T07:16:38.164Z,45.06
2019-01-14T07:17:38.389Z,45.05
2019-01-14T07:18:38.123Z,45.01
2019-01-14T07:19:38.478Z,45.04
2019-01-14T07:20:38.267Z,44.94
2019-01-14T07:21:37.962Z,45.02
2019-01-14T07:22:38.293Z,44.99
2019-01-14T07:23:38.737Z,45
2019-01-14T07:24:38.264Z,45.02
2019-01-14T07:25:38.189Z,45
2019-01-14T07:26:37.993Z,44.99
2019-01-14T07:27:38.078Z,45
2019-01-14T07:28:38.196Z,44.95
2019-01-14T07:29:38.321Z,44.97
2019-01-14T07:30:38.007Z,44.95
2019-01-14T07:31:37.938Z,44.91
2019-01-14T07:32:38.541Z,44.9
2019-01-14T07:33:38.019Z,44.94
2019-01-14T07:34:38.397Z,44.95
2019-01-14T07:35:38.001Z,44.9
2019-01-14T07:36:38.492Z,44.94
2019-01-14T07:37:38.310Z,44.9
2019-01-14T07:38:38.052Z,44.93
2019-01-14T07:39:38.144Z,44.9
2019-01-14T07:40:38.056Z,44.86
2019-01-14T07:41:37.926Z,44.91
2019-01-14T07:42:38.249Z,44.89
2019-01-14T07:43:37.865Z,44.89
2019-01-14T07:44:38.074Z,44.9
2019-01-14T07:45:38.259Z,44.9
2019-01-14T07:46:37.892Z,44.88
2019-01-14T07:47:38.090Z,44.89
2019-01-14T07:48:38.241Z,44.84
2019-01-14T07:49:38.253Z,44.85
2019-01-14T07:50:37.985Z,44.85
2019-01-14T07:51:39.342Z,44.83
2019-01-14T07:52:38.170Z,44.84
2019-01-14T07:53:38.072Z,44.83
2019-01-14T07:54:38.141Z,44.81
2019-01-14T07:55:38.261Z,44.83
2019-01-14T07:56:38.129Z,44.81
2019-01-14T07:57:38.297Z,44.81
2019-01-14T07:58:38.280Z,44.8
2019-01-14T07:59:38.418Z,44.83
2019-01-14T08:00:38.220Z,44.76
2019-01-14T08:01:38.317Z,44.74
2019-01-14T08:02:38.494Z,44.81
2019-01-14T08:03:38.254Z,44.78
2019-01-14T08:04:38.180Z,44.76
2019-01-14T08:05:38.837Z,44.78
2019-01-14T08:06:38.201Z,44.69
2019-01-14T08:07:38.225Z,44.86
2019-01-14T08:08:38.023Z,44.92
2019-01-14T08:09:38.542Z,45.42
2019-01-14T08:10:38.039Z,44.85
2019-01-14T08:11:38.940Z,45.06
2019-01-14T08:12:39.825Z,43.9
2019-01-14T08:13:38.530Z,43.6
2019-01-14T08:14:38.118Z,43.54
2019-01-14T08:15:38.127Z,42.85
2019-01-14T08:16:38.338Z,41.51
2019-01-14T08:17:38.133Z,40.71
2019-01-14T08:18:38.265Z,40.54
2019-01-14T08:19:38.683Z,40.46
2019-01-14T08:20:38.047Z,40.79
2019-01-14T08:21:38.000Z,40.56
2019-01-14T08:22:37.996Z,41.05
2019-01-14T08:23:38.667Z,41.26
2019-01-14T08:24:38.045Z,41.34
2019-01-14T08:25:38.248Z,42.11
2019-01-14T08:26:38.074Z,42.21
2019-01-14T08:27:38.367Z,42.39
2019-01-14T08:28:38.173Z,42.53
2019-01-14T08:29:37.924Z,42.9
2019-01-14T08:30:39.871Z,42.92
2019-01-14T08:31:38.884Z,42.91
2019-01-14T08:32:38.255Z,42.96
2019-01-14T08:33:38.535Z,42.93
2019-01-14T08:34:38.354Z,42.93
2019-01-14T08:35:38.467Z,42.98
2019-01-14T08:36:37.918Z,42.99
2019-01-14T08:37:38.361Z,43.01
2019-01-14T08:38:37.813Z,43.03
2019-01-14T08:39:38.163Z,43
2019-01-14T08:40:38.599Z,43.05
2019-01-14T08:41:38.145Z,43.08
2019-01-14T08:42:38.178Z,43.09
2019-01-14T08:43:37.880Z,43.11
2019-01-14T08:44:37.982Z,43.11
2019-01-14T08:45:38.032Z,43.14
2019-01-14T08:46:38.031Z,43.17
2019-01-14T08:47:38.071Z,43.19
2019-01-14T08:48:38.289Z,43.21
2019-01-14T08:49:38.094Z,43.22
2019-01-14T08:50:38.409Z,43.21
2019-01-14T08:51:38.076Z,43.18
2019-01-14T08:52:38.594Z,43.23
2019-01-14T08:53:37.999Z,43.29
2019-01-14T08:54:37.803Z,43.3
2019-01-14T08:55:37.905Z,43.33
2019-01-14T08:56:39.099Z,43.35
2019-01-14T08:57:38.216Z,43.38
2019-01-14T08:58:38.159Z,43.34
2019-01-14T08:59:38.180Z,43.38
2019-01-14T09:00:37.953Z,43.39
2019-01-14T09:01:39.792Z,43.45
2019-01-14T09:02:38.788Z,43.47
2019-01-14T09:03:38.112Z,43.41
2019-01-14T09:04:38.347Z,43.46
2019-01-14T09:05:38.421Z,43.49
2019-01-14T09:06:38.011Z,43.49
2019-01-14T09:07:38.234Z,43.51
2019-01-14T09:08:38.480Z,43.73
2019-01-14T09:09:38.182Z,42.72
2019-01-14T09:10:38.676Z,42.62
2019-01-14T09:11:39.929Z,42.78
2019-01-14T09:12:37.973Z,42.91
2019-01-14T09:13:38.120Z,42.8
2019-01-14T09:14:37.941Z,43.05
2019-01-14T09:15:38.373Z,43.1
2019-01-14T09:16:38.554Z,42.94
2019-01-14T09:17:38.022Z,42.93
2019-01-14T09:18:38.095Z,42.91
2019-01-14T09:19:38.424Z,42.96
2019-01-14T09:20:37.970Z,42.9
2019-01-14T09:21:38.779Z,42.88
2019-01-14T09:22:38.426Z,43.05
2019-01-14T09:23:38.072Z,42.96
2019-01-14T09:24:37.978Z,43
2019-01-14T09:25:39.916Z,43.02
2019-01-14T09:26:38.321Z,42.95
2019-01-14T09:27:38.108Z,42.89
2019-01-14T09:28:38.222Z,43
2019-01-14T09:29:38.357Z,43.02
2019-01-14T09:30:38.022Z,42.93
2019-01-14T09:31:38.097Z,42.96
2019-01-14T09:32:38.233Z,43
2019-01-14T09:33:38.500Z,43.01
2019-01-14T09:34:37.947Z,43.13
2019-01-14T09:35:38.150Z,43.12
2019-01-14T09:36:38.676Z,43.24
2019-01-14T09:37:37.957Z,43.98
2019-01-14T09:38:37.929Z,44.38
2019-01-14T09:39:38.103Z,44.64
2019-01-14T09:40:38.128Z,44.95
2019-01-14T09:41:38.114Z,45.09
2019-01-14T09:42:38.201Z,45.07
2019-01-14T09:43:38.149Z,45.78
2019-01-14T09:44:37.987Z,45.36
2019-01-14T09:45:38.561Z,43.93
2019-01-14T09:46:38.179Z,43.54
2019-01-14T09:47:38.277Z,43.28
2019-01-14T09:48:38.026Z,43.14
2019-01-14T09:49:37.882Z,43.47
2019-01-14T09:50:38.069Z,43.97
2019-01-14T09:51:38.094Z,44.26
2019-01-14T09:52:37.881Z,44.46
2019-01-14T09:53:38.045Z,44.74
2019-01-14T09:54:38.412Z,44.44
2019-01-14T09:55:38.325Z,44.51
2019-01-14T09:56:38.050Z,44.37
2019-01-14T09:57:38.109Z,43.98
2019-01-14T09:58:39.053Z,43.13
2019-01-14T09:59:37.927Z,43.14
2019-01-14T10:00:38.042Z,42.86
2019-01-14T10:01:38.355Z,43.6
2019-01-14T10:02:39.688Z,43.33
2019-01-14T10:03:38.162Z,43.56
2019-01-14T10:04:37.983Z,43.91
2019-01-14T10:05:38.423Z,44.11
2019-01-14T10:06:38.266Z,44.32
2019-01-14T10:07:38.762Z,44.35
2019-01-14T10:08:43.640Z,44.32
2019-01-14T10:09:37.883Z,44.35
2019-01-14T10:10:38.083Z,44.39
2019-01-14T10:11:38.176Z,44.38
2019-01-14T10:12:38.166Z,44.43
2019-01-14T10:13:38.167Z,44.45
2019-01-14T10:14:38.107Z,44.47
2019-01-14T10:15:38.298Z,44.5
2019-01-14T10:16:38.156Z,44.53
2019-01-14T10:17:38.254Z,44.5
2019-01-14T10:18:38.001Z,44.48
2019-01-14T10:19:38.085Z,44.55
2019-01-14T10:20:38.407Z,44.55
2019-01-14T10:21:38.273Z,44.59
2019-01-14T10:22:38.108Z,44.6
2019-01-14T10:23:37.911Z,44.64
2019-01-14T10:24:38.187Z,44.63
2019-01-14T10:25:38.212Z,44.69
2019-01-14T10:26:37.941Z,44.71
2019-01-14T10:27:37.856Z,44.7
2019-01-14T10:28:38.053Z,44.69
2019-01-14T10:29:38.230Z,44.74
2019-01-14T10:30:38.047Z,44.75
2019-01-14T10:31:38.066Z,44.74
2019-01-14T10:32:38.065Z,44.74
2019-01-14T10:33:38.665Z,44.7
2019-01-14T10:34:37.986Z,44.76
2019-01-14T10:35:38.126Z,44.76
2019-01-14T10:36:37.874Z,45.15
2019-01-14T10:37:38.351Z,46.04
2019-01-14T10:38:38.144Z,44.65
2019-01-14T10:39:38.334Z,44.19
2019-01-14T10:40:38.379Z,43.5
2019-01-14T10:41:38.299Z,43.44
2019-01-14T10:42:38.075Z,43.35
2019-01-14T10:43:37.807Z,43.24
2019-01-14T10:44:38.014Z,43.59
2019-01-14T10:45:39.930Z,43.73
2019-01-14T10:46:37.969Z,44.18
2019-01-14T10:47:38.395Z,44.07
2019-01-14T10:48:38.366Z,44.14
2019-01-14T10:49:38.594Z,44.29
2019-01-14T10:50:37.990Z,44.28
2019-01-14T10:51:38.238Z,44.34
2019-01-14T10:52:38.284Z,44.35
2019-01-14T10:53:38.148Z,44.41
2019-01-14T10:54:38.174Z,44.39
2019-01-14T10:55:38.922Z,44.44
2019-01-14T10:56:38.026Z,44.48
2019-01-14T10:57:38.424Z,44.54
2019-01-14T10:58:38.603Z,44.49
2019-01-14T10:59:38.153Z,44.54
2019-01-14T11:00:38.247Z,44.56
2019-01-14T11:01:38.250Z,44.55
2019-01-14T11:02:38.231Z,44.57
2019-01-14T11:03:38.140Z,44.61
2019-01-14T11:04:38.329Z,44.64
2019-01-14T11:05:38.222Z,44.6
2019-01-14T11:06:37.923Z,44.64
2019-01-14T11:07:38.067Z,44.64
2019-01-14T11:08:38.729Z,44.65
2019-01-14T11:09:38.038Z,44.62
2019-01-14T11:10:38.039Z,44.65
2019-01-14T11:11:37.992Z,44.66
2019-01-14T11:12:38.160Z,44.67
2019-01-14T11:13:37.921Z,44.66
2019-01-14T11:14:38.085Z,44.63
2019-01-14T11:15:38.033Z,44.68
2019-01-14T11:16:37.914Z,44.64
2019-01-14T11:17:38.146Z,44.63
2019-01-14T11:18:37.899Z,44.67
2019-01-14T11:19:38.046Z,44.63
2019-01-14T11:20:37.866Z,44.64
2019-01-14T11:21:37.979Z,44.66
2019-01-14T11:22:38.030Z,44.52
2019-01-14T11:23:38.139Z,44.39
2019-01-14T11:24:37.905Z,44.67
2019-01-14T11:25:37.928Z,44.8
2019-01-14T11:26:37.775Z,44.63
2019-01-14T11:27:37.881Z,45.08
2019-01-14T11:28:38.033Z,44.99
2019-01-14T11:29:37.961Z,44.96
2019-01-14T11:30:37.923Z,44.98
2019-01-14T11:31:39.810Z,45.02
2019-01-14T11:32:37.758Z,45.03
2019-01-14T11:33:38.987Z,45.02
2019-01-14T11:34:37.967Z,45.06
2019-01-14T11:35:37.946Z,45.06
2019-01-14T11:36:38.157Z,45.29
2019-01-14T11:37:38.227Z,45.18
2019-01-14T11:38:37.927Z,45.29
2019-01-14T11:39:37.986Z,45.14
2019-01-14T11:40:38.001Z,45.24
2019-01-14T11:41:37.842Z,45.13
2019-01-14T11:42:38.260Z,45.14
2019-01-14T11:43:37.957Z,45.07
2019-01-14T11:44:37.862Z,45.14
2019-01-14T11:45:38.573Z,45.14
2019-01-14T11:46:37.943Z,45.12
2019-01-14T11:47:37.780Z,44.93
2019-01-14T11:48:38.127Z,45.11
2019-01-14T11:49:37.821Z,44.7
2019-01-14T11:50:37.916Z,44.94
2019-01-14T11:51:38.100Z,44.95
2019-01-14T11:52:38.073Z,44.84
2019-01-14T11:53:38.070Z,44.86
2019-01-14T11:54:38.214Z,44.64
2019-01-14T11:55:37.898Z,44.91
2019-01-14T11:56:38.090Z,44.74
2019-01-14T11:57:38.103Z,45.03
2019-01-14T11:58:37.952Z,44.58
2019-01-14T11:59:38.349Z,44.54
2019-01-14T12:00:38.099Z,44.59
2019-01-14T12:01:38.023Z,44.81
2019-01-14T12:02:40.213Z,44.46
2019-01-14T12:03:38.154Z,44.53
2019-01-14T12:04:38.694Z,44.79
2019-01-14T12:05:38.275Z,44.91
2019-01-14T12:06:38.571Z,44.77
2019-01-14T12:07:38.104Z,44.79
2019-01-14T12:08:37.969Z,44.67
2019-01-14T12:09:37.802Z,44.64
2019-01-14T12:10:38.244Z,44.59
2019-01-14T12:11:37.998Z,44.59
2019-01-14T12:12:39.740Z,44.87
2019-01-14T12:13:38.389Z,44.74
2019-01-14T12:14:37.931Z,44.82
2019-01-14T12:15:38.326Z,44.59
2019-01-14T12:16:38.519Z,44.49
2019-01-14T12:17:38.034Z,44.46
2019-01-14T12:18:37.955Z,44.51
2019-01-14T12:19:37.969Z,44.46
2019-01-14T12:20:38.650Z,44.53
2019-01-14T12:21:37.899Z,44.66
2019-01-14T12:22:39.530Z,44.55
2019-01-14T12:23:38.051Z,44.57
2019-01-14T12:24:37.996Z,44.62
2019-01-14T12:25:38.218Z,44.6
2019-01-14T12:26:37.897Z,44.5
2019-01-14T12:27:38.025Z,44.61
2019-01-14T12:28:38.436Z,44.5
2019-01-14T12:29:38.196Z,44.61
2019-01-14T12:30:37.990Z,44.47
2019-01-14T12:31:38.389Z,44.73
2019-01-14T12:32:37.937Z,44.64
2019-01-14T12:33:37.898Z,44.51
2019-01-14T12:34:38.224Z,44.42
2019-01-14T12:35:38.114Z,44.44
2019-01-14T12:36:38.019Z,44.66
2019-01-14T12:37:38.250Z,44.46
2019-01-14T12:38:38.383Z,44.58
2019-01-14T12:39:38.340Z,44.28
2019-01-14T12:40:37.860Z,44.29
2019-01-14T12:41:37.870Z,44.34
2019-01-14T12:42:37.944Z,44.29
2019-01-14T12:43:37.932Z,44.28
2019-01-14T12:44:38.295Z,44.26
2019-01-14T12:45:38.040Z,44.29
2019-01-14T12:46:38.171Z,44.21
2019-01-14T12:47:39.915Z,44.31
2019-01-14T12:48:38.079Z,44.8
2019-01-14T12:49:38.003Z,44.64
2019-01-14T12:50:38.890Z,44.9
2019-01-14T12:51:37.796Z,44.23
2019-01-14T12:52:37.903Z,44.21
2019-01-14T12:53:38.094Z,44.11
2019-01-14T12:54:38.122Z,44.16
2019-01-14T12:55:37.895Z,44.15